Time;durP1;ratioP1;P1;durP2;ratioP2;P2;SDS_P1;SDS_P2;PMS_P1;PMS_P2;Temp;Humidity;BMP_temperature;BMP_pressure;BME280_temperature;BME280_humidity;BME280_pressure;Samples;Min_cycle;Max_cycle;Signal;HPM_P1;HPM_P2
2022/01/14 00:02:15;;;;;;;7.40;3.43;;;6.80;99.90;;;;;;5034320;28;20443;-83
2022/01/14 00:04:41;;;;;;;12.77;4.50;;;6.80;99.90;;;;;;5034052;28;20493;-83
2022/01/14 00:07:17;;;;;;;11.97;3.63;;;6.80;99.90;;;;;;5032263;28;20416;-82
2022/01/14 00:09:43;;;;;;;12.10;3.27;;;6.90;99.90;;;;;;5032545;28;20249;-83
2022/01/14 00:12:18;;;;;;;12.53;4.07;;;6.80;99.90;;;;;;5032360;28;20501;-82
2022/01/14 00:14:57;;;;;;;8.93;4.17;;;6.80;99.90;;;;;;5032499;28;20187;-83
2022/01/14 00:17:23;;;;;;;8.03;4.23;;;6.80;99.90;;;;;;5034363;28;20420;-84
2022/01/14 00:19:49;;;;;;;10.50;3.70;;;6.80;99.90;;;;;;5052206;28;20413;-82
2022/01/14 00:22:16;;;;;;;12.13;4.10;;;6.80;99.90;;;;;;5036802;28;20169;-83
2022/01/14 00:33:05;;;;;;;12.33;3.70;;;6.80;99.90;;;;;;5056226;28;20406;-85
2022/01/14 00:35:43;;;;;;;12.77;4.23;;;6.80;99.90;;;;;;5038045;28;20505;-84
2022/01/14 00:38:10;;;;;;;7.30;4.07;;;6.80;99.90;;;;;;5055426;28;20499;-85
2022/01/14 00:40:36;;;;;;;10.27;3.40;;;6.80;99.90;;;;;;5055842;28;20456;-84
2022/01/14 00:43:03;;;;;;;11.13;3.60;;;6.80;99.90;;;;;;5055978;28;20449;-85
2022/01/14 00:45:28;;;;;;;11.80;4.97;;;6.80;99.90;;;;;;5055955;28;20226;-83
2022/01/14 00:47:54;;;;;;;19.80;5.07;;;6.80;99.90;;;;;;5038193;28;20421;-84
2022/01/14 00:50:20;;;;;;;9.83;4.20;;;6.80;99.90;;;;;;5055982;28;20174;-85
2022/01/14 00:52:50;;;;;;;5.80;4.23;;;6.80;99.90;;;;;;5055509;28;20170;-83
2022/01/14 00:55:19;;;;;;;15.30;4.37;;;6.80;99.90;;;;;;5055794;28;20424;-84
2022/01/14 01:00:28;;;;;;;6.97;5.13;;;6.80;99.90;;;;;;5055724;28;20493;-83
2022/01/14 01:02:53;;;;;;;11.93;4.80;;;6.80;99.90;;;;;;5055275;28;21037;-84
2022/01/14 01:05:19;;;;;;;8.53;3.97;;;6.80;99.90;;;;;;5055439;28;20564;-84
2022/01/14 01:07:56;;;;;;;11.30;4.60;;;6.80;99.90;;;;;;5055170;28;20171;-84
2022/01/14 01:10:23;;;;;;;13.40;4.10;;;6.80;99.90;;;;;;5055582;28;20668;-82
2022/01/14 01:13:01;;;;;;;11.37;4.63;;;6.80;99.90;;;;;;5055277;28;20822;-83
2022/01/14 01:15:27;;;;;;;8.77;3.83;;;6.80;99.90;;;;;;5055429;28;20422;-84
2022/01/14 01:17:52;;;;;;;12.20;4.93;;;6.70;99.90;;;;;;5037574;28;20421;-83
2022/01/14 01:20:18;;;;;;;12.20;4.33;;;6.80;99.90;;;;;;5055217;28;20664;-83
2022/01/14 01:22:49;;;;;;;8.30;3.50;;;6.80;99.90;;;;;;5054803;28;20171;-83
2022/01/14 01:25:18;;;;;;;15.50;3.80;;;6.70;99.90;;;;;;5055176;28;20214;-83
2022/01/14 01:27:46;;;;;;;10.03;4.27;;;6.70;99.90;;;;;;5055140;28;20961;-83
2022/01/14 01:30:47;;;;;;;9.00;3.40;;;6.70;99.90;;;;;;5037297;28;20448;-84
2022/01/14 01:33:07;;;;;;;17.63;5.30;;;6.70;99.90;;;;;;5053409;28;20417;-84
2022/01/14 01:35:34;;;;;;;11.33;3.90;;;6.80;99.90;;;;;;5054934;28;20420;-83
2022/01/14 01:37:59;;;;;;;9.87;4.77;;;6.80;99.90;;;;;;5036418;28;20462;-84
2022/01/14 01:40:26;;;;;;;16.00;4.87;;;6.70;99.90;;;;;;5054965;28;20462;-83
2022/01/14 01:42:52;;;;;;;10.30;4.03;;;6.70;99.90;;;;;;5054823;28;20303;-82
2022/01/14 01:45:25;;;;;;;14.03;4.10;;;6.70;99.90;;;;;;5054689;28;20477;-83
2022/01/14 01:47:54;;;;;;;10.17;4.00;;;6.70;99.90;;;;;;5036699;28;20425;-84
2022/01/14 01:50:26;;;;;;;11.20;4.57;;;6.70;99.90;;;;;;5054668;28;20752;-83
2022/01/14 01:52:55;;;;;;;10.67;3.80;;;6.70;99.90;;;;;;5054301;28;20504;-83
2022/01/14 01:55:22;;;;;;;7.70;4.50;;;6.70;99.90;;;;;;5054584;28;20456;-83
2022/01/14 01:57:49;;;;;;;13.70;4.40;;;6.70;99.90;;;;;;5054590;28;20418;-83
2022/01/14 02:00:19;;;;;;;9.77;3.63;;;6.70;99.90;;;;;;5054522;28;20416;-83
2022/01/14 02:02:48;;;;;;;15.27;3.97;;;6.70;99.90;;;;;;5036543;28;20418;-83
2022/01/14 02:05:13;;;;;;;11.00;3.93;;;6.70;99.90;;;;;;5054491;28;20475;-82
2022/01/14 02:07:39;;;;;;;18.63;4.23;;;6.70;99.90;;;;;;5054046;28;20410;-82
2022/01/14 02:10:09;;;;;;;10.23;4.47;;;6.70;99.90;;;;;;5054237;28;20189;-83
2022/01/14 02:12:38;;;;;;;9.60;4.20;;;6.70;99.90;;;;;;5054287;28;20466;-83
2022/01/14 02:15:25;;;;;;;10.40;3.90;;;6.70;99.90;;;;;;5036306;28;20433;-82
2022/01/14 02:23:03;;;;;;;8.57;2.83;;;6.70;99.90;;;;;;5054194;28;20222;-84
2022/01/14 02:25:30;;;;;;;5.83;2.87;;;6.70;99.90;;;;;;5054158;28;20970;-82
2022/01/14 02:28:07;;;;;;;18.43;4.80;;;6.70;99.90;;;;;;5053755;28;20421;-84
2022/01/14 02:30:39;;;;;;;8.03;2.17;;;6.70;99.90;;;;;;5054026;28;20500;-83
2022/01/14 02:33:04;;;;;;;8.47;2.13;;;6.70;99.90;;;;;;5036020;28;20462;-84
2022/01/14 02:35:30;;;;;;;8.10;1.90;;;6.70;99.90;;;;;;5053859;28;20789;-82
2022/01/14 02:37:56;;;;;;;9.17;1.97;;;6.70;99.90;;;;;;5053126;28;20461;-83
2022/01/14 02:40:23;;;;;;;5.93;2.27;;;6.70;99.90;;;;;;5053641;28;20514;-84
2022/01/14 02:42:52;;;;;;;10.73;2.70;;;6.80;99.90;;;;;;5053598;28;20222;-81
2022/01/14 02:45:18;;;;;;;6.63;2.83;;;6.80;99.90;;;;;;5053360;28;20869;-82
2022/01/14 02:47:45;;;;;;;5.33;2.33;;;6.80;99.90;;;;;;5053730;28;20406;-83
2022/01/14 02:50:19;;;;;;;6.67;2.30;;;6.80;99.90;;;;;;5053487;28;20425;-82
2022/01/14 02:55:19;;;;;;;12.10;2.57;;;6.80;99.90;;;;;;5053494;28;20770;-83
2022/01/14 02:57:47;;;;;;;8.50;2.97;;;6.80;99.90;;;;;;5035703;28;20440;-80
2022/01/14 03:00:14;;;;;;;9.27;2.23;;;6.80;99.90;;;;;;5035531;28;20426;-84
2022/01/14 03:02:44;;;;;;;6.40;2.20;;;6.80;99.90;;;;;;5053391;28;20933;-83
2022/01/14 03:05:09;;;;;;;6.67;1.87;;;6.80;99.90;;;;;;5053330;28;20468;-83
2022/01/14 03:07:55;;;;;;;7.13;2.00;;;6.80;99.90;;;;;;5052981;28;20510;-83
2022/01/14 03:10:21;;;;;;;4.77;1.87;;;6.80;99.90;;;;;;5045950;28;20182;-83
2022/01/14 03:12:47;;;;;;;7.37;3.10;;;6.80;99.90;;;;;;5035377;28;20447;-84
2022/01/14 03:15:14;;;;;;;13.53;2.60;;;6.80;99.90;;;;;;5053214;28;20231;-84
2022/01/14 03:17:40;;;;;;;4.00;1.43;;;6.80;99.90;;;;;;5053056;28;20447;-83
2022/01/14 03:20:08;;;;;;;4.10;2.30;;;6.80;99.90;;;;;;5053028;28;20417;-83
2022/01/14 03:22:36;;;;;;;6.10;2.47;;;6.80;99.90;;;;;;5052708;28;20174;-82
2022/01/14 03:27:52;;;;;;;7.63;2.43;;;6.80;99.90;;;;;;5053054;28;20397;-82
2022/01/14 03:30:17;;;;;;;5.60;1.67;;;6.80;99.90;;;;;;5052819;28;20433;-81
2022/01/14 03:32:44;;;;;;;7.90;2.00;;;6.80;99.90;;;;;;5052853;28;20409;-82
2022/01/14 03:35:12;;;;;;;9.70;2.03;;;6.80;99.90;;;;;;5052912;28;20253;-84
2022/01/14 03:37:38;;;;;;;6.17;2.70;;;6.80;99.90;;;;;;5034265;28;20982;-83
2022/01/14 03:40:06;;;;;;;3.73;1.80;;;6.80;99.90;;;;;;5052500;28;20509;-83
2022/01/14 03:42:32;;;;;;;10.50;2.50;;;6.80;99.90;;;;;;5052656;28;20483;-80
2022/01/14 03:44:58;;;;;;;6.70;1.67;;;6.80;99.90;;;;;;5052550;28;20607;-82
2022/01/14 03:47:23;;;;;;;5.20;2.20;;;6.80;99.90;;;;;;5052673;28;20492;-83
2022/01/14 03:49:49;;;;;;;9.73;3.27;;;6.80;99.90;;;;;;5052474;28;20720;-84
2022/01/14 03:52:15;;;;;;;7.27;2.93;;;6.80;99.90;;;;;;5034368;28;20637;-84
2022/01/14 03:54:40;;;;;;;9.07;3.10;;;6.90;99.90;;;;;;5052529;28;20178;-81
2022/01/14 03:57:09;;;;;;;11.33;2.83;;;6.80;99.90;;;;;;5051954;28;20409;-80
2022/01/14 03:59:35;;;;;;;9.23;3.37;;;6.80;99.90;;;;;;5034662;28;20178;-84
2022/01/14 04:02:00;;;;;;;20.80;4.00;;;6.80;99.90;;;;;;5052507;28;20419;-84
2022/01/14 04:04:26;;;;;;;9.57;3.20;;;6.80;99.90;;;;;;5052368;28;20289;-82
2022/01/14 04:06:51;;;;;;;9.73;2.83;;;6.80;99.90;;;;;;5052077;28;20185;-84
2022/01/14 04:09:17;;;;;;;11.37;4.07;;;6.80;99.90;;;;;;5052607;28;20574;-83
2022/01/14 04:11:44;;;;;;;9.40;4.13;;;6.80;99.90;;;;;;5052508;28;20213;-84
2022/01/14 04:16:50;;;;;;;10.20;3.73;;;6.80;99.90;;;;;;5052503;28;20420;-82
2022/01/14 04:19:16;;;;;;;9.83;2.90;;;6.80;99.90;;;;;;5052353;28;20955;-85
2022/01/14 04:21:44;;;;;;;15.77;3.47;;;6.80;99.90;;;;;;5052019;28;20176;-84
2022/01/14 04:24:10;;;;;;;14.77;4.57;;;6.80;99.90;;;;;;5052010;28;20203;-81
2022/01/14 04:26:36;;;;;;;12.80;4.63;;;6.80;99.90;;;;;;5052241;28;20773;-83
2022/01/14 04:29:01;;;;;;;13.63;3.70;;;6.80;99.90;;;;;;5052276;28;20650;-83
2022/01/14 04:31:27;;;;;;;13.97;4.37;;;6.80;99.90;;;;;;5034274;28;20221;-84
2022/01/14 04:33:52;;;;;;;10.00;4.07;;;6.80;99.90;;;;;;5052312;28;20580;-84
2022/01/14 04:36:18;;;;;;;10.17;3.10;;;6.80;99.90;;;;;;5051586;28;20210;-81
2022/01/14 04:38:44;;;;;;;11.13;4.97;;;6.80;99.90;;;;;;5034338;28;20175;-84
2022/01/14 04:41:09;;;;;;;8.33;2.43;;;6.80;99.90;;;;;;5052253;28;20175;-83
2022/01/14 04:43:36;;;;;;;9.83;2.73;;;6.80;99.90;;;;;;5052043;28;20164;-83
2022/01/14 04:48:35;;;;;;;6.40;3.00;;;6.80;99.90;;;;;;5052297;28;20517;-85
2022/01/14 04:51:04;;;;;;;7.67;2.23;;;6.80;99.90;;;;;;5051849;28;20474;-85
2022/01/14 04:53:30;;;;;;;8.10;3.50;;;6.80;99.90;;;;;;5052056;28;20506;-83
2022/01/14 04:55:57;;;;;;;9.20;2.23;;;6.80;99.90;;;;;;5052157;28;20464;-85
2022/01/14 04:58:24;;;;;;;8.17;2.73;;;6.80;99.90;;;;;;5034109;28;20179;-86
2022/01/14 05:00:49;;;;;;;5.03;3.77;;;6.80;99.90;;;;;;5051929;28;20453;-84
2022/01/14 05:03:15;;;;;;;16.37;4.30;;;6.80;99.90;;;;;;5052146;28;20841;-84
2022/01/14 05:05:44;;;;;;;13.23;3.90;;;6.80;99.90;;;;;;5051637;28;20208;-84
2022/01/14 05:08:15;;;;;;;5.23;3.70;;;6.80;99.90;;;;;;5064216;28;20167;-80
2022/01/14 05:13:25;;;;;;;13.60;3.70;;;6.80;99.90;;;;;;5059897;28;20467;-86
2022/01/14 05:15:52;;;;;;;12.63;3.50;;;6.80;99.90;;;;;;5062269;28;21006;-82
2022/01/14 05:18:18;;;;;;;12.60;2.40;;;6.80;99.90;;;;;;5043935;28;20421;-82
2022/01/14 05:20:43;;;;;;;7.03;2.57;;;6.80;99.90;;;;;;5055630;28;20443;-85
2022/01/14 05:23:09;;;;;;;10.37;4.77;;;6.80;99.90;;;;;;5055462;28;20202;-84
2022/01/14 05:25:38;;;;;;;12.40;3.60;;;6.80;99.90;;;;;;5055240;28;20250;-84
2022/01/14 05:28:04;;;;;;;12.70;3.20;;;6.80;99.90;;;;;;5055161;28;20409;-83
2022/01/14 05:30:29;;;;;;;5.43;1.73;;;6.80;99.90;;;;;;5055129;28;20425;-85
2022/01/14 05:32:56;;;;;;;5.10;2.20;;;6.80;99.90;;;;;;5055188;28;20170;-84
2022/01/14 05:35:24;;;;;;;7.80;2.57;;;6.80;99.90;;;;;;5054852;28;20579;-83
2022/01/14 05:37:50;;;;;;;11.50;3.60;;;6.80;99.90;;;;;;5054833;28;20456;-84
2022/01/14 05:40:17;;;;;;;9.90;3.23;;;6.80;99.90;;;;;;5052982;28;20457;-82
2022/01/14 05:42:46;;;;;;;17.40;3.10;;;6.80;99.90;;;;;;5030897;28;20426;-83
2022/01/14 05:45:16;;;;;;;10.23;3.80;;;6.80;99.90;;;;;;5053803;28;20477;-84
2022/01/14 05:47:41;;;;;;;7.70;2.97;;;6.80;99.90;;;;;;5054934;28;20833;-82
2022/01/14 05:50:13;;;;;;;7.83;2.37;;;6.80;99.90;;;;;;5054505;28;20424;-81
2022/01/14 05:52:39;;;;;;;6.13;3.07;;;6.80;99.90;;;;;;5054867;28;20215;-84
2022/01/14 05:55:10;;;;;;;9.63;3.00;;;6.80;99.90;;;;;;5054668;28;20426;-84
2022/01/14 05:57:38;;;;;;;17.13;3.57;;;6.80;99.90;;;;;;5054188;28;20402;-84
2022/01/14 06:00:06;;;;;;;7.40;3.00;;;6.80;99.90;;;;;;5054305;28;20431;-84
2022/01/14 06:02:32;;;;;;;7.60;2.13;;;6.80;99.90;;;;;;5036398;28;20917;-84
2022/01/14 06:04:57;;;;;;;7.47;3.10;;;6.80;99.90;;;;;;5054832;28;20527;-84
2022/01/14 06:07:23;;;;;;;11.47;2.83;;;6.80;99.90;;;;;;5054534;28;20529;-84
2022/01/14 06:09:48;;;;;;;8.07;2.30;;;6.70;99.90;;;;;;5054795;28;20541;-84
2022/01/14 06:12:14;;;;;;;11.40;4.47;;;6.70;99.90;;;;;;5054555;28;20182;-85
2022/01/14 06:14:39;;;;;;;7.83;2.60;;;6.70;99.90;;;;;;5036705;28;20646;-84
2022/01/14 06:17:05;;;;;;;8.37;2.27;;;6.70;99.90;;;;;;5054457;28;20183;-84
2022/01/14 06:19:30;;;;;;;14.97;3.03;;;6.60;99.90;;;;;;5053899;28;20232;-84
2022/01/14 06:21:57;;;;;;;15.03;2.63;;;6.60;99.90;;;;;;5054157;28;20535;-83
2022/01/14 06:24:22;;;;;;;10.93;2.30;;;6.60;99.90;;;;;;5054353;28;20265;-85
2022/01/14 06:26:48;;;;;;;12.40;3.00;;;6.60;99.90;;;;;;5054335;28;20437;-81
2022/01/14 06:29:13;;;;;;;10.30;3.00;;;6.60;99.90;;;;;;5054418;28;20170;-83
2022/01/14 06:31:39;;;;;;;9.37;2.93;;;6.50;99.90;;;;;;5054295;28;20183;-81
2022/01/14 06:34:04;;;;;;;20.10;2.80;;;6.50;99.90;;;;;;5054224;28;20186;-82
2022/01/14 06:36:30;;;;;;;19.30;4.30;;;6.50;99.90;;;;;;5053627;28;20247;-83
2022/01/14 06:38:55;;;;;;;9.93;2.37;;;6.50;99.90;;;;;;5054153;28;20167;-82
2022/01/14 06:41:21;;;;;;;8.70;3.57;;;6.50;99.90;;;;;;5054118;28;20166;-81
2022/01/14 06:43:46;;;;;;;6.17;2.67;;;6.50;99.90;;;;;;5054017;28;20179;-82
2022/01/14 06:46:12;;;;;;;10.10;2.80;;;6.50;99.90;;;;;;5035947;28;20178;-80
2022/01/14 06:48:37;;;;;;;8.70;2.60;;;6.50;99.90;;;;;;5053820;28;20178;-82
2022/01/14 06:51:12;;;;;;;12.33;3.07;;;6.50;99.90;;;;;;5053464;28;20545;-82
2022/01/14 06:53:38;;;;;;;7.10;2.33;;;6.50;99.90;;;;;;5053875;28;20686;-83
2022/01/14 06:56:04;;;;;;;8.27;1.93;;;6.50;99.90;;;;;;5035989;28;20421;-81
2022/01/14 06:58:29;;;;;;;12.90;2.20;;;6.50;99.90;;;;;;5053558;28;20188;-83
2022/01/14 07:00:55;;;;;;;7.87;2.60;;;6.50;99.90;;;;;;5053749;28;20239;-83
2022/01/14 07:03:20;;;;;;;14.40;2.23;;;6.50;99.90;;;;;;5053731;28;20196;-83
2022/01/14 07:05:46;;;;;;;9.00;2.90;;;6.50;99.90;;;;;;5053105;28;20218;-80
2022/01/14 07:08:11;;;;;;;6.47;2.37;;;6.50;99.90;;;;;;5053597;28;20178;-81
2022/01/14 07:10:37;;;;;;;5.83;1.83;;;6.50;99.90;;;;;;5053662;28;20209;-82
2022/01/14 07:13:04;;;;;;;6.43;1.90;;;6.50;99.90;;;;;;5053655;28;20165;-85
2022/01/14 07:15:29;;;;;;;5.83;2.07;;;6.50;99.90;;;;;;5053402;28;20167;-82
2022/01/14 07:17:56;;;;;;;10.47;2.23;;;6.50;99.90;;;;;;5053359;28;20409;-82
2022/01/14 07:20:21;;;;;;;5.90;1.70;;;6.50;99.90;;;;;;5053146;28;20529;-83
2022/01/14 07:22:47;;;;;;;14.20;2.37;;;6.50;99.90;;;;;;5053347;28;20418;-84
2022/01/14 07:25:13;;;;;;;7.47;2.03;;;6.50;99.90;;;;;;5035457;28;20234;-84
2022/01/14 07:27:39;;;;;;;8.70;3.27;;;6.50;99.90;;;;;;5053392;28;20167;-80
2022/01/14 07:30:05;;;;;;;9.03;2.73;;;6.50;99.90;;;;;;5052951;28;20437;-80
2022/01/14 07:32:34;;;;;;;14.07;2.60;;;6.50;99.90;;;;;;5052389;28;20186;-83
2022/01/14 07:35:02;;;;;;;12.37;3.93;;;6.50;99.90;;;;;;5052864;28;20428;-81
2022/01/14 07:37:28;;;;;;;6.27;2.53;;;6.50;99.90;;;;;;5052844;28;20456;-84
2022/01/14 07:39:53;;;;;;;16.07;2.40;;;6.50;99.90;;;;;;5053325;28;20421;-83
2022/01/14 07:42:21;;;;;;;7.33;2.50;;;6.50;99.90;;;;;;5053126;28;20170;-81
2022/01/14 07:44:50;;;;;;;14.27;3.10;;;6.60;99.90;;;;;;5052738;28;20206;-83
2022/01/14 07:47:16;;;;;;;9.97;2.20;;;6.60;99.90;;;;;;5052760;28;20427;-80
2022/01/14 07:49:45;;;;;;;8.47;1.97;;;6.60;99.90;;;;;;5052899;28;20405;-81
2022/01/14 07:52:10;;;;;;;11.17;4.17;;;6.60;99.90;;;;;;5052517;28;20654;-81
2022/01/14 07:54:36;;;;;;;9.10;3.70;;;6.60;99.90;;;;;;5052831;28;20504;-80
2022/01/14 07:57:07;;;;;;;11.27;2.30;;;6.60;99.90;;;;;;5052809;28;20179;-82
2022/01/14 07:59:34;;;;;;;7.97;1.60;;;6.60;99.90;;;;;;5052924;28;20185;-81
2022/01/14 08:02:00;;;;;;;20.10;2.10;;;6.60;99.90;;;;;;5052885;28;20443;-85
2022/01/14 08:04:26;;;;;;;10.17;2.10;;;6.60;99.90;;;;;;5034318;28;20476;-84
2022/01/14 08:06:54;;;;;;;7.00;2.17;;;6.60;99.90;;;;;;5034264;28;20415;-83
2022/01/14 08:09:20;;;;;;;18.63;2.40;;;6.60;99.90;;;;;;5052045;28;20413;-85
2022/01/14 08:11:46;;;;;;;9.30;2.03;;;6.60;99.90;;;;;;5052820;28;20413;-81
2022/01/14 08:14:13;;;;;;;7.80;2.03;;;6.60;99.90;;;;;;5052806;28;20423;-85
2022/01/14 08:16:39;;;;;;;6.53;2.40;;;6.70;99.90;;;;;;5053022;28;20414;-89
2022/01/14 08:19:05;;;;;;;8.77;2.47;;;6.60;99.90;;;;;;5052805;28;20419;-84
2022/01/14 08:21:30;;;;;;;10.00;2.70;;;6.70;99.90;;;;;;5052145;28;20405;-81
2022/01/14 08:23:56;;;;;;;6.97;2.83;;;6.70;99.90;;;;;;5052550;28;20177;-82
2022/01/14 08:26:22;;;;;;;8.03;1.73;;;6.70;99.90;;;;;;5052633;28;20264;-85
2022/01/14 08:28:47;;;;;;;12.63;2.63;;;6.70;99.90;;;;;;5052641;28;20484;-85
2022/01/14 08:31:14;;;;;;;9.73;3.30;;;6.70;99.90;;;;;;5052460;28;20597;-82
2022/01/14 08:33:42;;;;;;;9.10;2.70;;;6.70;99.90;;;;;;5052493;28;20265;-81
2022/01/14 08:36:07;;;;;;;9.63;2.63;;;6.70;99.90;;;;;;5051540;28;20471;-85
2022/01/14 08:38:33;;;;;;;10.93;2.70;;;6.80;99.90;;;;;;5034324;28;20787;-85
2022/01/14 08:40:58;;;;;;;12.80;2.83;;;6.70;99.90;;;;;;5034504;28;20175;-81
2022/01/14 08:43:24;;;;;;;17.60;3.70;;;6.80;99.90;;;;;;5036963;28;20178;-80
2022/01/14 08:45:49;;;;;;;20.87;3.63;;;6.80;99.90;;;;;;5056108;28;20220;-82
2022/01/14 08:48:16;;;;;;;14.83;2.90;;;6.80;99.90;;;;;;5056066;28;20629;-83
2022/01/14 08:50:45;;;;;;;8.57;1.47;;;6.80;99.90;;;;;;5037818;28;20792;-81
2022/01/14 08:53:13;;;;;;;7.53;1.97;;;6.90;99.90;;;;;;5056059;28;20419;-81
2022/01/14 08:55:39;;;;;;;21.67;4.03;;;6.80;99.90;;;;;;5055947;28;20418;-81
2022/01/14 08:58:06;;;;;;;10.63;2.53;;;6.80;99.90;;;;;;5056077;28;20420;-83
2022/01/14 09:00:38;;;;;;;16.20;2.93;;;6.80;99.90;;;;;;5055913;28;20444;-83
2022/01/14 09:03:04;;;;;;;14.30;3.97;;;6.80;99.90;;;;;;5056020;28;20413;-82
2022/01/14 09:05:30;;;;;;;7.10;2.70;;;6.80;99.90;;;;;;5055292;28;20797;-83
2022/01/14 09:07:56;;;;;;;11.63;2.47;;;6.80;99.90;;;;;;5055539;28;20173;-82
2022/01/14 09:10:22;;;;;;;8.40;3.50;;;6.70;99.90;;;;;;5055650;28;20410;-82
2022/01/14 09:12:48;;;;;;;8.13;2.27;;;6.80;99.90;;;;;;5055557;28;20937;-82
2022/01/14 09:15:14;;;;;;;9.50;3.10;;;6.70;99.90;;;;;;5055309;28;20603;-82
2022/01/14 09:17:40;;;;;;;4.90;2.67;;;6.70;99.90;;;;;;5052195;28;20509;-89
2022/01/14 09:20:07;;;;;;;8.50;2.87;;;6.70;99.90;;;;;;5037675;28;20434;-91
2022/01/14 09:22:35;;;;;;;8.57;3.27;;;6.70;99.90;;;;;;5054380;28;20409;-89
2022/01/14 09:25:02;;;;;;;16.73;3.60;;;6.70;99.90;;;;;;5056764;28;20551;-91
2022/01/14 09:27:28;;;;;;;19.10;5.00;;;6.70;99.90;;;;;;5060492;28;20412;-92
2022/01/14 09:29:54;;;;;;;12.40;3.27;;;6.70;99.90;;;;;;5065490;28;20412;-93
2022/01/14 09:32:20;;;;;;;7.77;3.10;;;6.70;99.90;;;;;;5052644;28;20432;-92
2022/01/14 09:34:46;;;;;;;9.87;4.00;;;6.70;99.90;;;;;;5057318;28;20405;-94
2022/01/14 09:37:11;;;;;;;13.30;3.63;;;6.60;99.90;;;;;;5039350;28;20494;-92
2022/01/14 09:39:39;;;;;;;8.77;3.00;;;6.70;99.90;;;;;;5059842;28;20182;-92
2022/01/14 09:42:06;;;;;;;14.07;3.80;;;6.70;99.90;;;;;;5064431;28;20231;-93
2022/01/14 09:44:31;;;;;;;13.77;3.77;;;6.70;99.90;;;;;;5067551;28;20449;-92
2022/01/14 09:46:57;;;;;;;7.13;3.13;;;6.60;99.90;;;;;;5050929;28;20417;-94
2022/01/14 09:49:22;;;;;;;14.30;4.57;;;6.60;99.90;;;;;;5060272;28;20193;-94
2022/01/14 09:51:48;;;;;;;19.17;5.60;;;6.60;99.90;;;;;;5057914;28;20224;-95
2022/01/14 09:54:13;;;;;;;14.30;5.50;;;6.60;99.90;;;;;;5057456;28;20175;-93
2022/01/14 09:56:41;;;;;;;13.13;3.40;;;6.60;99.90;;;;;;5057982;28;20194;-93
2022/01/14 09:59:07;;;;;;;9.13;3.90;;;6.60;99.90;;;;;;5058551;28;20233;-95
2022/01/14 10:01:41;;;;;;;10.83;4.57;;;6.60;99.90;;;;;;5058342;28;20444;-93
2022/01/14 10:04:12;;;;;;;13.80;4.77;;;6.60;99.90;;;;;;5058375;28;20485;-94
2022/01/14 10:06:49;;;;;;;8.37;3.40;;;6.60;99.90;;;;;;5057522;28;20827;-92
2022/01/14 10:09:19;;;;;;;14.30;5.20;;;6.70;99.90;;;;;;5058500;28;20403;-94
2022/01/14 10:12:02;;;;;;;12.40;4.53;;;6.60;99.90;;;;;;5039348;28;20444;-94
2022/01/14 10:14:28;;;;;;;18.03;6.37;;;6.60;99.90;;;;;;5052812;28;20414;-93
2022/01/14 10:17:00;;;;;;;14.80;5.00;;;6.60;99.90;;;;;;5060588;28;20417;-93
2022/01/14 10:19:33;;;;;;;11.10;4.47;;;6.60;99.90;;;;;;5060326;28;20421;-90
2022/01/14 10:21:58;;;;;;;15.83;6.03;;;6.60;99.90;;;;;;5058377;28;20937;-90
2022/01/14 10:24:29;;;;;;;13.40;6.03;;;6.60;99.90;;;;;;5054212;28;20455;-93
2022/01/14 10:26:58;;;;;;;17.80;4.73;;;6.70;99.90;;;;;;5057110;28;20572;-92
2022/01/14 10:29:40;;;;;;;14.40;7.27;;;6.70;99.90;;;;;;5055961;28;20404;-92
2022/01/14 10:32:08;;;;;;;12.50;5.90;;;6.80;99.90;;;;;;5056682;28;20432;-93
2022/01/14 10:34:34;;;;;;;8.70;5.57;;;6.80;99.90;;;;;;5057026;28;20406;-93
2022/01/14 10:37:14;;;;;;;11.03;5.47;;;6.80;99.90;;;;;;5056272;28;20465;-91
2022/01/14 10:39:53;;;;;;;15.07;5.47;;;6.80;99.90;;;;;;5056398;28;20908;-94
2022/01/14 10:42:24;;;;;;;11.23;5.00;;;6.80;99.90;;;;;;5040450;28;20438;-92
2022/01/14 10:44:49;;;;;;;13.13;6.03;;;6.80;99.90;;;;;;5040211;28;20457;-93
2022/01/14 10:47:22;;;;;;;12.63;6.20;;;6.80;99.90;;;;;;5057370;28;20429;-94
2022/01/14 10:49:50;;;;;;;11.60;4.77;;;6.80;99.90;;;;;;5055739;28;20506;-92
2022/01/14 10:52:21;;;;;;;8.77;4.17;;;6.90;99.90;;;;;;5038615;28;20424;-92
2022/01/14 10:54:49;;;;;;;12.33;5.23;;;6.90;99.90;;;;;;5056525;28;20478;-90
2022/01/14 10:57:20;;;;;;;12.70;5.20;;;6.90;99.90;;;;;;5056567;28;20405;-93
2022/01/14 10:59:48;;;;;;;9.80;4.97;;;7.00;99.90;;;;;;5038462;28;20421;-91
2022/01/14 11:02:39;;;;;;;14.67;5.40;;;7.00;99.90;;;;;;5037709;28;20416;-90
2022/01/14 11:05:09;;;;;;;12.83;4.53;;;7.00;99.90;;;;;;5053444;28;20667;-93
2022/01/14 11:07:36;;;;;;;9.23;4.33;;;7.00;99.90;;;;;;5037667;28;20508;-92
2022/01/14 11:10:15;;;;;;;17.43;5.63;;;7.10;99.90;;;;;;5055061;28;20793;-93
2022/01/14 11:12:41;;;;;;;20.50;6.47;;;7.00;99.90;;;;;;5055179;28;20405;-93
2022/01/14 11:15:08;;;;;;;25.20;4.70;;;7.00;99.90;;;;;;5054891;28;20453;-91
2022/01/14 11:17:37;;;;;;;9.27;4.47;;;7.00;99.90;;;;;;5055481;28;20934;-89
2022/01/14 11:20:11;;;;;;;13.97;4.00;;;7.00;99.90;;;;;;5054947;28;20422;-91
2022/01/14 11:25:21;;;;;;;13.50;4.27;;;7.00;99.90;;;;;;5068600;28;20495;-83
2022/01/14 11:27:53;;;;;;;12.20;5.63;;;7.00;99.90;;;;;;5069015;28;20413;-87
2022/01/14 11:30:21;;;;;;;14.53;5.93;;;7.00;99.90;;;;;;5070768;28;20442;-90
2022/01/14 11:32:57;;;;;;;11.90;3.63;;;7.00;99.90;;;;;;5070312;28;20412;-86
2022/01/14 11:35:26;;;;;;;11.70;3.30;;;7.00;99.90;;;;;;5059381;28;20467;-91
2022/01/14 11:37:52;;;;;;;11.23;4.53;;;7.00;99.90;;;;;;5054686;28;20469;-87
2022/01/14 11:40:18;;;;;;;7.47;3.43;;;6.90;99.90;;;;;;5055916;28;20414;-94
2022/01/14 11:42:49;;;;;;;9.90;4.10;;;7.00;99.90;;;;;;5056884;28;20406;-90
2022/01/14 11:45:20;;;;;;;5.57;3.20;;;7.10;99.90;;;;;;5055501;28;20468;-89
2022/01/14 11:47:48;;;;;;;8.37;3.90;;;7.10;99.90;;;;;;5036785;28;20780;-93
2022/01/14 11:50:19;;;;;;;13.17;4.13;;;7.10;99.90;;;;;;5054162;28;20422;-90
2022/01/14 11:52:47;;;;;;;5.27;4.30;;;7.20;99.90;;;;;;5054706;28;20436;-86
2022/01/14 11:55:21;;;;;;;11.53;2.93;;;7.30;99.90;;;;;;5054523;28;20428;-89
2022/01/14 11:58:02;;;;;;;8.10;2.70;;;7.20;99.90;;;;;;5037089;28;20423;-93
2022/01/14 12:00:33;;;;;;;9.80;2.70;;;7.20;99.90;;;;;;5055033;28;20386;-90
2022/01/14 12:03:25;;;;;;;6.80;2.33;;;7.30;99.90;;;;;;5055559;28;20441;-93
2022/01/14 12:06:05;;;;;;;6.10;2.87;;;7.40;99.90;;;;;;5054442;28;20949;-90
2022/01/14 12:08:33;;;;;;;8.67;3.33;;;7.40;99.90;;;;;;5036575;28;20448;-91
2022/01/14 12:11:07;;;;;;;6.40;2.40;;;7.50;99.90;;;;;;5054231;28;20786;-93
2022/01/14 12:13:44;;;;;;;9.70;3.57;;;7.50;99.90;;;;;;5054434;28;20408;-84
2022/01/14 12:16:36;;;;;;;6.77;2.90;;;7.50;99.90;;;;;;5054146;28;20406;-93
2022/01/14 12:19:02;;;;;;;7.80;2.63;;;7.40;99.90;;;;;;5058347;28;20409;-93
2022/01/14 12:21:43;;;;;;;4.57;2.10;;;7.40;99.90;;;;;;5057839;28;20429;-89
2022/01/14 12:24:30;;;;;;;8.27;2.63;;;7.40;99.90;;;;;;5057915;28;20955;-85
2022/01/14 12:27:00;;;;;;;6.17;2.50;;;7.40;99.90;;;;;;5057873;28;20425;-88
2022/01/14 12:29:36;;;;;;;5.60;2.00;;;7.40;99.90;;;;;;5040691;28;20426;-92
2022/01/14 12:32:11;;;;;;;5.57;1.80;;;7.50;99.90;;;;;;5058528;28;20744;-91
2022/01/14 12:34:57;;;;;;;7.83;2.30;;;7.40;99.90;;;;;;5057999;28;20422;-91
2022/01/14 12:37:32;;;;;;;7.23;2.20;;;7.40;99.90;;;;;;5058011;28;20459;-94
2022/01/14 12:40:09;;;;;;;3.77;2.17;;;7.40;99.90;;;;;;5057962;28;20415;-92
2022/01/14 12:42:36;;;;;;;5.57;2.20;;;7.40;99.90;;;;;;5057461;28;20419;-93
2022/01/14 12:45:05;;;;;;;5.60;2.47;;;7.40;99.90;;;;;;5057618;28;20466;-93
2022/01/14 12:47:35;;;;;;;4.33;1.53;;;7.50;99.90;;;;;;5059641;28;20413;-93
2022/01/14 12:50:03;;;;;;;4.33;2.13;;;7.50;99.90;;;;;;5057903;28;20511;-83
2022/01/14 12:52:37;;;;;;;3.13;1.60;;;7.50;99.90;;;;;;5057735;28;20413;-91
2022/01/14 12:55:05;;;;;;;4.03;1.80;;;7.50;99.90;;;;;;5058695;28;20411;-83
2022/01/14 12:57:31;;;;;;;6.40;2.57;;;7.50;99.90;;;;;;5040533;28;20425;-87
2022/01/14 12:59:57;;;;;;;4.10;3.27;;;7.60;99.90;;;;;;5058100;28;20503;-90
2022/01/14 13:02:25;;;;;;;3.63;1.87;;;7.60;99.90;;;;;;5059079;28;20181;-88
2022/01/14 13:05:09;;;;;;;6.47;2.50;;;7.60;99.90;;;;;;5056732;28;20260;-91
2022/01/14 13:07:36;;;;;;;5.83;2.83;;;7.60;99.90;;;;;;5057314;28;20411;-87
2022/01/14 13:10:04;;;;;;;3.83;1.70;;;7.60;99.90;;;;;;5056804;28;20435;-91
2022/01/14 13:12:35;;;;;;;4.43;2.10;;;7.70;99.90;;;;;;5039422;28;20444;-87
2022/01/14 13:15:04;;;;;;;4.77;2.13;;;7.70;99.90;;;;;;5039393;28;20418;-92
2022/01/14 13:17:35;;;;;;;8.43;2.80;;;7.70;99.90;;;;;;5057117;28;20455;-91
2022/01/14 13:20:13;;;;;;;5.17;3.27;;;7.70;99.90;;;;;;5056738;28;20901;-91
2022/01/14 13:22:40;;;;;;;4.93;1.83;;;7.80;99.90;;;;;;5057358;28;20437;-86
2022/01/14 13:25:09;;;;;;;10.17;2.40;;;7.80;99.90;;;;;;5056986;28;20517;-93
2022/01/14 13:27:38;;;;;;;3.70;2.23;;;7.80;99.90;;;;;;5057365;28;20419;-89
2022/01/14 13:30:06;;;;;;;3.67;2.53;;;7.80;99.90;;;;;;5055404;28;20461;-89
2022/01/14 13:32:35;;;;;;;4.83;1.73;;;7.70;99.90;;;;;;5056819;28;20762;-89